»·PEaware :: UAL837 KSAN-KSFO

UAL837 :: KSAN-KSFO

FLIGHT INFORMATION

Flight Status: Arrived
Operator:
United Airlines
More flights by this operator :: More flights under this callsign
Pilot: Amer K. (15838)
Aircraft: AIRBUS A319
(A319)
More flights by this aircraft type
Origin: KSAN San Diego Intl-Lindbergh
United States
Destination: KSFO San Francisco Intl
United States
More flights between these airports :: More routes between these airports
Route: PADRZ2 IKAYE RIZIN SPLNT STOKD SERFR SERFR3
File this flight plan on PilotEdge
Remarks: Still learning. Please read clearances slowly.
Altitude:
(Current/Filed)
36,000ft
Speed:
(Current/Filed)
450kts
Departed: 03-Nov-19 09:32 PM
Arrived: 03-Nov-19 10:41 PM
Distance/Time
Traveled:
388nm/1:08
Distance/Time
To Go:
Arrived

Flight Plot

Page will automatically refresh every two minutes.

Flight plan parsing failed; only flown route is shown


Map Options




Map Legend


Flown Route
Filed Route
Departure Airport
Arrival Airport
Navaid (VOR, NDB)
Fix

Horizontal Profiles

Position Reports

Time Latitude Longitude Heading Altitude Ground
Speed
03-Nov-19 20:43 32.734134 -117.201194 167 29ft 0kts
03-Nov-19 20:44 32.734134 -117.201194 167 29ft 0kts
03-Nov-19 20:45 32.734134 -117.201194 167 29ft 0kts
03-Nov-19 20:46 32.734134 -117.201194 167 29ft 0kts
03-Nov-19 20:47 32.734134 -117.201194 167 29ft 0kts
03-Nov-19 20:48 32.734134 -117.201194 167 29ft 0kts
03-Nov-19 20:49 32.734134 -117.201194 167 29ft 0kts
03-Nov-19 20:50 32.734134 -117.201194 167 29ft 0kts
03-Nov-19 20:51 32.734134 -117.201194 167 29ft 0kts
03-Nov-19 20:52 32.734134 -117.201194 167 29ft 0kts
03-Nov-19 20:53 32.734134 -117.201194 167 29ft 0kts
03-Nov-19 20:54 32.734134 -117.201194 167 29ft 0kts
03-Nov-19 20:55 32.734134 -117.201194 167 29ft 0kts
03-Nov-19 20:56 32.734134 -117.201194 167 29ft 0kts
03-Nov-19 20:57 32.734134 -117.201194 167 29ft 0kts
03-Nov-19 20:58 32.734134 -117.201194 167 29ft 0kts
03-Nov-19 20:59 32.734134 -117.201194 167 29ft 0kts
03-Nov-19 21:00 32.734134 -117.201194 167 29ft 0kts
03-Nov-19 21:01 32.734134 -117.201194 167 29ft 0kts
03-Nov-19 21:02 32.734134 -117.201194 167 29ft 0kts
03-Nov-19 21:03 32.734134 -117.201194 167 29ft 0kts
03-Nov-19 21:04 32.734134 -117.201194 167 29ft 0kts
03-Nov-19 21:05 32.734134 -117.201194 167 29ft 0kts
03-Nov-19 21:06 32.734134 -117.201194 167 29ft 0kts
03-Nov-19 21:07 32.734134 -117.201194 167 29ft 0kts
03-Nov-19 21:08 32.734134 -117.201194 167 29ft 0kts
03-Nov-19 21:09 32.734134 -117.201194 167 29ft 0kts
03-Nov-19 21:10 32.734134 -117.201194 167 29ft 0kts
03-Nov-19 21:11 32.734134 -117.201194 167 29ft 0kts
03-Nov-19 21:12 32.734134 -117.201194 167 29ft 0kts
03-Nov-19 21:13 32.734134 -117.201194 167 29ft 0kts
03-Nov-19 21:14 32.734134 -117.201194 167 29ft 0kts
03-Nov-19 21:15 32.734134 -117.201194 167 29ft 0kts
03-Nov-19 21:16 32.734134 -117.201194 167 29ft 0kts
03-Nov-19 21:17 32.734134 -117.201194 167 29ft 0kts
03-Nov-19 21:18 32.734613 -117.201318 167 29ft 2kts
03-Nov-19 21:19 32.735237 -117.201487 155 29ft 2kts
03-Nov-19 21:20 32.735505 -117.201928 106 29ft 0kts
03-Nov-19 21:21 32.735505 -117.201927 106 29ft 0kts
03-Nov-19 21:22 32.735485 -117.201843 106 29ft 3kts
03-Nov-19 21:23 32.734764 -117.198936 107 29ft 11kts
03-Nov-19 21:24 32.733531 -117.193920 104 29ft 17kts
03-Nov-19 21:25 32.732180 -117.188141 105 29ft 22kts
03-Nov-19 21:26 32.730281 -117.180297 105 29ft 26kts
03-Nov-19 21:27 32.729511 -117.176903 86 29ft 0kts
03-Nov-19 21:28 32.729511 -117.176902 86 29ft 0kts
03-Nov-19 21:29 32.729511 -117.176900 86 29ft 0kts
03-Nov-19 21:30 32.730377 -117.176469 285 29ft 0kts
03-Nov-19 21:31 32.735665 -117.198418 287 83ft 186kts
03-Nov-19 21:32 32.762417 -117.253314 304 3056ft 222kts
03-Nov-19 21:33 32.788027 -117.298885 304 4825ft 262kts
03-Nov-19 21:34 32.834409 -117.372286 307 8117ft 287kts
03-Nov-19 21:35 32.884712 -117.450457 308 11023ft 316kts
03-Nov-19 21:36 32.944055 -117.542770 308 12427ft 383kts
03-Nov-19 21:37 33.012851 -117.650198 307 14174ft 419kts
03-Nov-19 21:38 33.086431 -117.754043 319 16329ft 429kts
03-Nov-19 21:39 33.153733 -117.820822 320 17809ft 438kts
03-Nov-19 21:40 33.221230 -117.893910 314 19207ft 446kts
03-Nov-19 21:41 33.309677 -118.000329 314 20947ft 456kts
03-Nov-19 21:42 33.400716 -118.109038 313 22466ft 465kts
03-Nov-19 21:43 33.466734 -118.188307 313 23453ft 471kts
03-Nov-19 21:44 33.545982 -118.283615 313 24487ft 477kts
03-Nov-19 21:45 33.611348 -118.362403 313 25305ft 480kts
03-Nov-19 21:46 33.697780 -118.466929 313 26622ft 477kts
03-Nov-19 21:47 33.789715 -118.578398 314 28038ft 473kts
03-Nov-19 21:48 33.856951 -118.660170 314 29125ft 470kts
03-Nov-19 21:49 33.922130 -118.739614 314 30173ft 467kts
03-Nov-19 21:50 33.987337 -118.819287 314 31272ft 463kts
03-Nov-19 21:51 34.077254 -118.929500 315 32507ft 463kts
03-Nov-19 21:52 34.161569 -119.044339 304 33908ft 457kts
03-Nov-19 21:53 34.227408 -119.174789 303 35087ft 453kts
03-Nov-19 21:54 34.294175 -119.303485 302 36026ft 449kts
03-Nov-19 21:55 34.343872 -119.400975 302 36027ft 448kts
03-Nov-19 21:56 34.410087 -119.528732 307 36028ft 447kts
03-Nov-19 21:57 34.496311 -119.637014 316 36044ft 446kts
03-Nov-19 21:58 34.539787 -119.690348 315 36037ft 446kts
03-Nov-19 21:59 34.603649 -119.769772 315 36032ft 446kts
03-Nov-19 22:00 34.690744 -119.877256 315 36003ft 447kts
03-Nov-19 22:01 34.733289 -119.930121 315 36003ft 448kts
03-Nov-19 22:02 34.820391 -120.038370 315 36031ft 448kts
03-Nov-19 22:03 34.907330 -120.146781 315 36045ft 448kts
03-Nov-19 22:04 34.994418 -120.255757 315 35996ft 449kts
03-Nov-19 22:05 35.059817 -120.337817 316 35999ft 449kts
03-Nov-19 22:06 35.150125 -120.442923 319 36004ft 449kts
03-Nov-19 22:07 35.241413 -120.545129 319 36039ft 449kts
03-Nov-19 22:09 35.310768 -120.623144 319 36058ft 449kts
03-Nov-19 22:10 35.402549 -120.726663 319 36080ft 449kts
03-Nov-19 22:11 35.495373 -120.829461 324 36070ft 448kts
03-Nov-19 22:12 35.594869 -120.921289 325 36041ft 448kts
03-Nov-19 22:13 35.694285 -121.014069 325 36035ft 448kts
03-Nov-19 22:14 35.767359 -121.082131 325 36030ft 447kts
03-Nov-19 22:15 35.866740 -121.175152 325 36035ft 447kts
03-Nov-19 22:16 35.965543 -121.267844 325 35387ft 445kts
03-Nov-19 22:17 36.064165 -121.360623 327 33570ft 446kts
03-Nov-19 22:18 36.168758 -121.442872 331 30977ft 449kts
03-Nov-19 22:19 36.246561 -121.503764 330 28955ft 452kts
03-Nov-19 22:20 36.353842 -121.587848 330 25701ft 461kts
03-Nov-19 22:21 36.461195 -121.672395 330 23049ft 439kts
03-Nov-19 22:22 36.556474 -121.747586 330 22294ft 383kts
03-Nov-19 22:23 36.644102 -121.816851 330 20221ft 374kts
03-Nov-19 22:24 36.730300 -121.885250 331 18252ft 360kts
03-Nov-19 22:25 36.823729 -121.917399 350 16315ft 344kts
03-Nov-19 22:26 36.916012 -121.942992 348 14534ft 337kts
03-Nov-19 22:27 36.991827 -121.968314 343 13039ft 332kts
03-Nov-19 22:28 37.061554 -121.995955 343 11656ft 325kts
03-Nov-19 22:29 37.123743 -122.020141 343 11124ft 293kts
03-Nov-19 22:29 37.188033 -122.045275 343 9803ft 291kts
03-Nov-19 22:31 37.272523 -122.078388 342 8581ft 269kts
03-Nov-19 22:31 37.329779 -122.101348 341 7737ft 254kts
03-Nov-19 22:32 37.392576 -122.125238 345 7087ft 224kts
03-Nov-19 22:34 37.456275 -122.146825 344 5539ft 189kts
03-Nov-19 22:34 37.496282 -122.160509 343 4065ft 171kts
03-Nov-19 22:35 37.539060 -122.184710 299 3008ft 175kts
03-Nov-19 22:36 37.560352 -122.236034 297 2173ft 144kts
03-Nov-19 22:37 37.579055 -122.280545 297 1419ft 144kts
03-Nov-19 22:38 37.596005 -122.320895 295 731ft 121kts
03-Nov-19 22:39 37.611340 -122.357408 295 102ft 119kts
03-Nov-19 22:40 37.618763 -122.375216 286 27ft 7kts
03-Nov-19 22:41 37.618929 -122.378708 257 27ft 0kts
03-Nov-19 22:42 37.618929 -122.378709 257 27ft 0kts
03-Nov-19 22:43 37.618929 -122.378711 257 27ft 0kts
03-Nov-19 22:44 37.618929 -122.378713 257 27ft 0kts
03-Nov-19 22:45 37.619096 -122.380534 295 27ft 10kts
03-Nov-19 22:46 37.620624 -122.384998 183 27ft 5kts
03-Nov-19 22:47 37.619200 -122.386154 213 27ft 5kts
03-Nov-19 22:48 37.618951 -122.386361 212 27ft 0kts
03-Nov-19 22:49 37.618950 -122.386362 212 27ft 0kts
03-Nov-19 22:50 37.618950 -122.386362 212 27ft 0kts
03-Nov-19 22:51 37.618950 -122.386362 212 27ft 0kts
03-Nov-19 22:52 37.618950 -122.386362 212 27ft 0kts
03-Nov-19 22:53 37.618950 -122.386362 212 27ft 0kts
03-Nov-19 22:54 37.618950 -122.386362 212 27ft 0kts

Navigation Log

Ident Type
Flight plan parsing failed, navigation log unavailable